createdAt,value
2019-01-06T00:00:23.908Z,3.98
2019-01-06T00:01:41.292Z,4.17
2019-01-06T00:03:02.766Z,4.15
2019-01-06T00:04:24.532Z,3.20
2019-01-06T00:05:47.894Z,3.95
2019-01-06T00:06:58.826Z,3.33
2019-01-06T00:08:04.001Z,3.62
2019-01-06T00:09:12.194Z,3.22
2019-01-06T00:10:17.406Z,3.40
2019-01-06T00:11:40.899Z,3.00
2019-01-06T00:12:52.216Z,2.98
2019-01-06T00:14:02.875Z,2.65
2019-01-06T00:15:23.121Z,2.83
2019-01-06T00:16:43.333Z,2.87
2019-01-06T00:17:57.398Z,2.65
2019-01-06T00:19:18.926Z,3.05
2019-01-06T00:20:35.938Z,3.15
2019-01-06T00:21:57.595Z,2.62
2019-01-06T00:23:08.562Z,2.50
2019-01-06T00:24:19.917Z,2.70
2019-01-06T00:25:43.436Z,2.50
2019-01-06T00:26:51.350Z,2.62
2019-01-06T00:28:13.256Z,2.67
2019-01-06T00:29:24.476Z,2.55
2019-01-06T00:30:32.630Z,2.45
2019-01-06T00:31:37.814Z,3.02
2019-01-06T00:32:48.533Z,2.72
2019-01-06T00:34:09.971Z,2.70
2019-01-06T00:35:31.740Z,2.85
2019-01-06T00:36:36.917Z,2.65
2019-01-06T00:37:50.946Z,2.33
2019-01-06T00:38:58.550Z,2.70
2019-01-06T00:40:03.762Z,2.50
2019-01-06T00:41:25.242Z,2.65
2019-01-06T00:42:42.440Z,2.40
2019-01-06T00:43:53.783Z,2.20
2019-01-06T00:45:15.464Z,2.87
2019-01-06T00:46:20.638Z,2.33
2019-01-06T00:47:42.395Z,2.12
2019-01-06T00:48:47.579Z,2.50
2019-01-06T00:50:01.572Z,2.72
2019-01-06T00:51:12.695Z,2.60
2019-01-06T00:52:23.626Z,2.40
2019-01-06T00:53:45.080Z,2.50
2019-01-06T00:54:55.719Z,2.87
2019-01-06T00:56:00.940Z,2.20
2019-01-06T00:57:15.209Z,2.45
2019-01-06T00:58:26.658Z,2.60
2019-01-06T00:59:34.378Z,2.55
2019-01-06T01:00:45.298Z,2.40
2019-01-06T01:02:07.119Z,2.02
2019-01-06T01:03:21.348Z,2.30
2019-01-06T01:04:41.558Z,2.22
2019-01-06T01:05:58.663Z,2.47
2019-01-06T01:07:19.970Z,2.37
2019-01-06T01:08:25.077Z,2.40
2019-01-06T01:09:43.840Z,2.10
2019-01-06T01:10:48.952Z,2.62
2019-01-06T01:11:56.811Z,2.05
2019-01-06T01:13:04.603Z,2.17
2019-01-06T01:14:18.348Z,2.20
2019-01-06T01:15:32.270Z,2.83
2019-01-06T01:16:55.657Z,1.50
2019-01-06T01:18:16.154Z,2.08
2019-01-06T01:19:36.550Z,1.60
2019-01-06T01:20:41.730Z,1.80
2019-01-06T01:21:52.747Z,2.10
2019-01-06T01:22:57.925Z,2.37
2019-01-06T01:24:21.499Z,2.00
2019-01-06T01:25:43.157Z,2.00
2019-01-06T01:27:00.560Z,1.90
2019-01-06T01:28:17.514Z,2.00
2019-01-06T01:29:31.979Z,2.00
2019-01-06T01:30:39.765Z,2.20
2019-01-06T01:31:59.842Z,2.40
2019-01-06T01:33:07.477Z,2.02
2019-01-06T01:34:15.603Z,2.33
2019-01-06T01:35:35.838Z,1.90
2019-01-06T01:36:56.291Z,2.30
2019-01-06T01:38:17.880Z,2.22
2019-01-06T01:39:25.598Z,2.30
2019-01-06T01:40:30.709Z,2.60
2019-01-06T01:41:47.938Z,2.00
2019-01-06T01:42:58.966Z,2.77
2019-01-06T01:44:19.418Z,2.55
2019-01-06T01:45:27.357Z,2.40
2019-01-06T01:46:50.861Z,2.42
2019-01-06T01:48:05.018Z,3.40
2019-01-06T01:49:26.395Z,2.50
2019-01-06T01:50:31.573Z,2.65
2019-01-06T01:51:36.750Z,2.83
2019-01-06T01:52:41.938Z,3.00
2019-01-06T01:54:02.194Z,3.15
2019-01-06T01:55:23.770Z,3.45
2019-01-06T01:56:28.873Z,3.72
2019-01-06T01:57:39.743Z,3.10
2019-01-06T01:58:44.913Z,4.00
2019-01-06T01:59:52.824Z,3.55
2019-01-06T02:00:57.994Z,3.52
2019-01-06T02:02:19.447Z,3.77
2019-01-06T02:03:33.658Z,3.42
2019-01-06T02:04:41.518Z,3.17
2019-01-06T02:05:55.824Z,3.40
2019-01-06T02:07:01.008Z,3.30
2019-01-06T02:08:22.155Z,3.67
2019-01-06T02:09:27.339Z,3.50
2019-01-06T02:10:48.934Z,3.80
2019-01-06T02:12:06.123Z,3.40
2019-01-06T02:13:11.307Z,3.45
2019-01-06T02:14:16.491Z,3.37
2019-01-06T02:15:21.674Z,3.42
2019-01-06T02:16:38.702Z,3.40
2019-01-06T02:17:43.810Z,3.02
2019-01-06T02:19:05.094Z,3.62
2019-01-06T02:20:13.208Z,3.35
2019-01-06T02:21:34.650Z,3.30
2019-01-06T02:22:56.368Z,3.77
2019-01-06T02:24:01.586Z,3.35
2019-01-06T02:25:16.407Z,3.50
2019-01-06T02:26:21.506Z,4.20
2019-01-06T02:27:38.790Z,3.15
2019-01-06T02:29:00.634Z,3.45
2019-01-06T02:30:23.959Z,3.90
2019-01-06T02:31:44.216Z,3.98
2019-01-06T02:32:52.118Z,3.65
2019-01-06T02:34:12.563Z,3.83
2019-01-06T02:35:34.158Z,3.85
2019-01-06T02:36:39.330Z,4.25
2019-01-06T02:38:02.539Z,4.03
2019-01-06T02:39:24.584Z,4.12
2019-01-06T02:40:29.770Z,3.72
2019-01-06T02:41:51.503Z,3.40
2019-01-06T02:43:02.474Z,3.70
2019-01-06T02:44:10.820Z,3.90
2019-01-06T02:45:22.158Z,4.25
2019-01-06T02:46:44.184Z,4.70
2019-01-06T02:47:52.246Z,4.62
2019-01-06T02:48:59.854Z,3.50
2019-01-06T02:50:11.336Z,3.75
2019-01-06T02:51:22.035Z,4.08
2019-01-06T02:52:30.464Z,3.40
2019-01-06T02:53:51.608Z,4.15
2019-01-06T02:55:05.822Z,4.12
2019-01-06T02:56:29.216Z,4.10
2019-01-06T02:57:50.646Z,3.95
2019-01-06T02:59:14.143Z,3.85
2019-01-06T03:00:19.321Z,4.17
2019-01-06T03:01:40.803Z,4.37
2019-01-06T03:02:51.723Z,4.45
2019-01-06T03:03:56.902Z,4.53
2019-01-06T03:05:04.815Z,4.62
2019-01-06T03:06:18.964Z,4.08
2019-01-06T03:07:29.743Z,4.40
2019-01-06T03:08:34.918Z,4.10
2019-01-06T03:09:42.550Z,4.30
2019-01-06T03:10:47.728Z,4.50
2019-01-06T03:12:09.190Z,4.75
2019-01-06T03:13:26.166Z,4.65
2019-01-06T03:14:47.805Z,4.60
2019-01-06T03:16:01.674Z,4.30
2019-01-06T03:17:06.777Z,4.03
2019-01-06T03:18:14.666Z,4.33
2019-01-06T03:19:25.615Z,4.85
2019-01-06T03:20:36.480Z,4.58
2019-01-06T03:21:57.886Z,4.70
2019-01-06T03:23:15.073Z,4.97
2019-01-06T03:24:25.729Z,5.42
2019-01-06T03:25:39.598Z,5.55
2019-01-06T03:26:50.908Z,5.10
2019-01-06T03:28:07.624Z,4.60
2019-01-06T03:29:30.982Z,4.65
2019-01-06T03:30:48.179Z,4.90
2019-01-06T03:31:55.879Z,5.10
2019-01-06T03:33:01.055Z,4.75
2019-01-06T03:34:06.235Z,4.85
2019-01-06T03:35:14.359Z,4.80
2019-01-06T03:36:25.310Z,4.40
2019-01-06T03:37:33.455Z,4.83
2019-01-06T03:38:38.626Z,4.60
2019-01-06T03:40:00.073Z,4.30
2019-01-06T03:41:07.986Z,4.65
2019-01-06T03:42:13.161Z,4.53
2019-01-06T03:43:30.194Z,4.35
2019-01-06T03:44:50.501Z,4.12
2019-01-06T03:46:13.714Z,4.12
2019-01-06T03:47:28.037Z,4.53
2019-01-06T03:48:49.751Z,4.55
2019-01-06T03:49:54.930Z,4.95
2019-01-06T03:51:16.577Z,4.53
2019-01-06T03:52:30.894Z,5.03
2019-01-06T03:53:39.019Z,4.45
2019-01-06T03:54:44.238Z,4.10
2019-01-06T03:56:01.454Z,4.17
2019-01-06T03:57:24.695Z,4.60
2019-01-06T03:58:29.877Z,4.03
2019-01-06T03:59:38.038Z,4.10
2019-01-06T04:00:48.775Z,3.90
2019-01-06T04:02:02.755Z,3.47
2019-01-06T04:03:16.633Z,3.60
2019-01-06T04:04:38.053Z,3.52
2019-01-06T04:05:46.198Z,4.12
2019-01-06T04:06:51.417Z,3.35
2019-01-06T04:08:08.890Z,3.05
2019-01-06T04:09:19.956Z,3.70
2019-01-06T04:10:41.451Z,3.62
2019-01-06T04:12:02.028Z,3.47
2019-01-06T04:13:07.195Z,3.25
2019-01-06T04:14:14.987Z,3.72
2019-01-06T04:15:26.170Z,3.42
2019-01-06T04:16:49.482Z,3.37
2019-01-06T04:17:54.720Z,3.10
2019-01-06T04:19:02.722Z,3.77
2019-01-06T04:20:10.593Z,3.12
2019-01-06T04:21:18.767Z,2.98
2019-01-06T04:22:29.754Z,3.40
2019-01-06T04:23:44.107Z,3.30
2019-01-06T04:25:01.322Z,3.37
2019-01-06T04:26:21.904Z,3.65
2019-01-06T04:27:27.083Z,3.20
2019-01-06T04:28:32.268Z,2.95
2019-01-06T04:29:43.283Z,3.05
2019-01-06T04:30:48.466Z,2.90
2019-01-06T04:31:53.647Z,3.30
2019-01-06T04:33:15.275Z,3.70
2019-01-06T04:34:31.988Z,3.20
2019-01-06T04:35:55.294Z,3.17
2019-01-06T04:37:03.242Z,2.87
2019-01-06T04:38:14.623Z,3.22
2019-01-06T04:39:35.030Z,3.62
2019-01-06T04:40:49.118Z,3.75
2019-01-06T04:41:54.298Z,3.80
2019-01-06T04:42:59.446Z,3.60
2019-01-06T04:44:10.561Z,3.40
2019-01-06T04:45:27.725Z,3.67
2019-01-06T04:46:38.918Z,3.45
2019-01-06T04:47:59.024Z,2.70
2019-01-06T04:49:19.516Z,3.22
2019-01-06T04:50:41.258Z,3.10
2019-01-06T04:51:54.908Z,3.60
2019-01-06T04:53:16.932Z,2.50
2019-01-06T04:54:38.582Z,3.22
2019-01-06T04:55:46.716Z,3.05
2019-01-06T04:57:00.634Z,3.40
2019-01-06T04:58:22.031Z,3.45
2019-01-06T04:59:30.150Z,3.30
2019-01-06T05:00:38.418Z,3.77
2019-01-06T05:01:49.197Z,3.62
2019-01-06T05:03:06.186Z,3.85
2019-01-06T05:04:27.881Z,4.05
2019-01-06T05:05:38.606Z,3.75
2019-01-06T05:06:55.886Z,3.80
2019-01-06T05:08:06.641Z,3.60
2019-01-06T05:09:28.035Z,3.60
2019-01-06T05:10:35.957Z,3.65
2019-01-06T05:11:57.692Z,4.25
2019-01-06T05:13:19.370Z,3.10
2019-01-06T05:14:41.089Z,3.42
2019-01-06T05:16:02.656Z,3.37
2019-01-06T05:17:24.241Z,3.40
2019-01-06T05:18:38.451Z,3.42
2019-01-06T05:19:46.327Z,4.28
2019-01-06T05:21:08.162Z,3.33
2019-01-06T05:22:13.342Z,3.12
2019-01-06T05:23:18.521Z,3.35
2019-01-06T05:24:39.998Z,3.20
2019-01-06T05:25:47.891Z,3.20
2019-01-06T05:26:58.782Z,2.87
2019-01-06T05:28:18.972Z,2.98
2019-01-06T05:29:33.387Z,2.45
2019-01-06T05:30:53.577Z,2.92
2019-01-06T05:31:58.755Z,2.90
2019-01-06T05:33:19.241Z,3.65
2019-01-06T05:34:30.480Z,2.72
2019-01-06T05:35:51.638Z,2.40
2019-01-06T05:36:56.827Z,2.65
2019-01-06T05:38:07.679Z,2.90
2019-01-06T05:39:30.629Z,1.90
2019-01-06T05:40:54.026Z,2.25
2019-01-06T05:41:59.246Z,2.55
2019-01-06T05:43:04.355Z,2.90
2019-01-06T05:44:25.860Z,1.95
2019-01-06T05:45:31.030Z,2.20
2019-01-06T05:46:45.446Z,2.30
2019-01-06T05:47:59.527Z,2.72
2019-01-06T05:49:04.633Z,2.50
2019-01-06T05:50:09.812Z,2.62
2019-01-06T05:51:26.985Z,2.52
2019-01-06T05:52:32.167Z,2.55
2019-01-06T05:53:43.041Z,2.25
2019-01-06T05:55:04.390Z,2.58
2019-01-06T05:56:09.570Z,2.67
2019-01-06T05:57:33.114Z,2.45
2019-01-06T05:58:41.300Z,2.65
2019-01-06T05:59:58.487Z,2.80
2019-01-06T06:01:19.927Z,3.12
2019-01-06T06:02:27.515Z,2.70
2019-01-06T06:03:32.699Z,3.08
2019-01-06T06:04:37.882Z,3.50
2019-01-06T06:05:51.958Z,3.58
2019-01-06T06:06:57.131Z,3.20
2019-01-06T06:08:02.239Z,3.30
2019-01-06T06:09:10.643Z,3.30
2019-01-06T06:10:21.781Z,3.90
2019-01-06T06:11:43.156Z,3.55
2019-01-06T06:12:51.279Z,3.67
2019-01-06T06:13:56.562Z,3.40
2019-01-06T06:15:04.534Z,3.20
2019-01-06T06:16:27.914Z,2.67
2019-01-06T06:17:33.138Z,2.67
2019-01-06T06:18:53.266Z,2.55
2019-01-06T06:20:04.522Z,2.80
2019-01-06T06:21:24.703Z,2.55
2019-01-06T06:22:29.878Z,2.05
2019-01-06T06:23:40.759Z,2.40
2019-01-06T06:24:57.738Z,2.40
2019-01-06T06:26:14.732Z,1.72
2019-01-06T06:27:35.251Z,2.20
2019-01-06T06:28:56.842Z,1.92
2019-01-06T06:30:17.991Z,1.77
2019-01-06T06:31:25.841Z,1.67
2019-01-06T06:32:42.958Z,2.20
2019-01-06T06:34:04.958Z,1.80
2019-01-06T06:35:12.959Z,1.92
2019-01-06T06:36:34.441Z,2.27
2019-01-06T06:37:39.661Z,2.10
2019-01-06T06:39:01.582Z,1.80
2019-01-06T06:40:07.555Z,3.30
2019-01-06T06:41:15.701Z,5.50
2019-01-06T06:42:39.222Z,6.05
2019-01-06T06:43:44.454Z,3.77
2019-01-06T06:44:49.637Z,14.53
2019-01-06T06:45:54.821Z,18.17
2019-01-06T06:47:15.930Z,57.48
2019-01-06T06:48:30.130Z,39.45
2019-01-06T06:49:53.566Z,48.58
2019-01-06T06:51:10.715Z,21.90
2019-01-06T06:52:28.090Z,74.12
2019-01-06T06:53:49.782Z,33.05
2019-01-06T06:55:00.838Z,24.92
2019-01-06T06:56:15.066Z,20.50
2019-01-06T06:58:05.599Z,24.07
2019-01-06T06:59:16.510Z,71.77
2019-01-06T07:00:51.639Z,31.55
2019-01-06T07:02:29.020Z,34.83
2019-01-06T07:03:53.418Z,45.88
2019-01-06T07:05:04.695Z,196.78
2019-01-06T07:06:18.886Z,70.25
2019-01-06T07:07:24.007Z,60.98
2019-01-06T07:08:29.226Z,33.35
2019-01-06T07:09:34.413Z,46.95
2019-01-06T07:10:51.839Z,23.25
2019-01-06T07:12:15.261Z,54.73
2019-01-06T07:13:29.409Z,85.10
2019-01-06T07:14:50.757Z,49.45
2019-01-06T07:16:12.056Z,24.47
2019-01-06T07:17:48.018Z,127.40
2019-01-06T07:18:59.099Z,31.17
2019-01-06T07:20:19.389Z,41.35
2019-01-06T07:21:27.209Z,48.90
2019-01-06T07:22:34.802Z,84.65
2019-01-06T07:23:39.918Z,31.17
2019-01-06T07:25:03.117Z,69.60
2019-01-06T07:26:08.298Z,19.77
2019-01-06T07:27:16.487Z,19.62
2019-01-06T07:28:24.389Z,25.43
2019-01-06T07:29:32.101Z,85.47
2019-01-06T07:30:37.336Z,51.68
2019-01-06T07:31:57.775Z,22.42
2019-01-06T07:33:02.958Z,16.35
2019-01-06T07:34:14.257Z,60.95
2019-01-06T07:35:28.454Z,19.32
2019-01-06T07:36:48.970Z,29.45
2019-01-06T07:37:54.162Z,23.60
2019-01-06T07:39:11.266Z,33.88
2019-01-06T07:40:16.385Z,33.83
2019-01-06T07:41:27.287Z,28.23
2019-01-06T07:42:49.208Z,53.45
2019-01-06T07:44:03.512Z,50.88
2019-01-06T07:45:11.853Z,38.73
2019-01-06T07:46:22.590Z,38.08
2019-01-06T07:47:45.893Z,31.90
2019-01-06T07:49:02.938Z,66.35
2019-01-06T07:50:08.057Z,54.00
2019-01-06T07:51:25.117Z,37.75
2019-01-06T07:52:41.866Z,28.95
2019-01-06T07:53:49.831Z,26.02
2019-01-06T07:54:55.022Z,17.65
2019-01-06T07:56:00.210Z,50.58
2019-01-06T07:57:08.301Z,31.95
2019-01-06T07:58:25.406Z,24.87
2019-01-06T07:59:33.558Z,24.10
2019-01-06T08:00:38.758Z,27.75
2019-01-06T08:01:49.702Z,29.18
2019-01-06T08:03:11.046Z,18.20
2019-01-06T08:04:28.270Z,19.32
2019-01-06T08:05:51.714Z,36.35
2019-01-06T08:07:02.903Z,23.75
2019-01-06T08:08:16.717Z,23.70
2019-01-06T08:09:38.278Z,32.17
2019-01-06T08:11:01.467Z,24.37
2019-01-06T08:12:12.462Z,30.12
2019-01-06T08:13:17.642Z,22.90
2019-01-06T08:14:22.750Z,25.52
2019-01-06T08:15:39.955Z,21.27
2019-01-06T08:17:01.619Z,23.22
2019-01-06T08:18:12.580Z,15.20
2019-01-06T08:19:17.763Z,14.45
2019-01-06T08:20:22.945Z,15.20
2019-01-06T08:21:28.134Z,18.50
2019-01-06T08:22:33.286Z,16.27
2019-01-06T08:23:41.097Z,19.82
2019-01-06T08:24:55.196Z,15.20
2019-01-06T08:26:16.866Z,17.17
2019-01-06T08:27:38.478Z,31.15
2019-01-06T08:28:52.689Z,66.02
2019-01-06T08:29:57.882Z,67.35
2019-01-06T08:31:02.995Z,80.28
2019-01-06T08:32:20.089Z,57.53
2019-01-06T08:33:41.577Z,53.63
2019-01-06T08:35:03.307Z,26.97
2019-01-06T08:36:17.599Z,50.52
2019-01-06T08:37:39.254Z,22.50
2019-01-06T08:39:02.594Z,26.25
2019-01-06T08:40:13.685Z,20.45
2019-01-06T08:41:18.854Z,14.93
2019-01-06T08:42:39.254Z,13.88
2019-01-06T08:43:44.362Z,13.53
2019-01-06T08:45:05.644Z,16.60
2019-01-06T08:46:22.854Z,16.05
2019-01-06T08:47:37.030Z,16.57
2019-01-06T08:48:42.214Z,19.48
2019-01-06T08:49:47.411Z,17.35
2019-01-06T08:50:58.618Z,17.37
2019-01-06T08:52:21.809Z,16.42
2019-01-06T08:53:29.963Z,13.30
2019-01-06T08:54:35.169Z,17.90
2019-01-06T08:55:40.292Z,15.80
2019-01-06T08:57:01.710Z,16.30
2019-01-06T08:58:18.646Z,15.05
2019-01-06T08:59:26.591Z,14.93
2019-01-06T09:00:48.178Z,16.20
2019-01-06T09:02:08.327Z,14.10
2019-01-06T09:03:25.386Z,14.80
2019-01-06T09:04:42.570Z,14.55
2019-01-06T09:05:50.426Z,13.40
2019-01-06T09:06:55.548Z,13.40
2019-01-06T09:08:16.788Z,13.98
2019-01-06T09:09:45.307Z,13.15
2019-01-06T09:10:46.898Z,22.35
2019-01-06T09:12:04.150Z,16.77
2019-01-06T09:13:18.553Z,15.30
2019-01-06T09:14:23.798Z,15.23
2019-01-06T09:15:45.083Z,13.40
2019-01-06T09:16:58.976Z,11.88
2019-01-06T09:18:04.445Z,12.05
2019-01-06T09:19:09.648Z,14.10
2019-01-06T09:20:20.615Z,12.00
2019-01-06T09:21:31.790Z,10.65
2019-01-06T09:22:52.981Z,11.03
2019-01-06T09:23:58.175Z,10.55
2019-01-06T09:25:19.824Z,11.55
2019-01-06T09:26:43.539Z,12.63
2019-01-06T09:27:51.462Z,9.95
2019-01-06T09:28:59.640Z,11.00
2019-01-06T09:30:05.300Z,12.10
2019-01-06T09:31:22.505Z,13.25
2019-01-06T09:32:27.879Z,11.12
2019-01-06T09:33:49.603Z,11.65
2019-01-06T09:35:00.538Z,10.85
2019-01-06T09:36:05.739Z,12.65
2019-01-06T09:37:26.911Z,11.83
2019-01-06T09:38:32.135Z,10.80
2019-01-06T09:39:52.587Z,12.80
2019-01-06T09:41:03.625Z,12.10
2019-01-06T09:42:17.432Z,13.32
2019-01-06T09:43:25.515Z,10.85
2019-01-06T09:44:36.177Z,13.75
2019-01-06T09:45:47.422Z,12.18
2019-01-06T09:46:55.318Z,12.82
2019-01-06T09:48:16.782Z,13.30
2019-01-06T09:49:24.822Z,12.35
2019-01-06T09:50:30.012Z,11.93
2019-01-06T09:51:41.155Z,11.50
2019-01-06T09:52:55.174Z,10.72
2019-01-06T09:54:15.337Z,10.00
2019-01-06T09:55:36.621Z,10.32
2019-01-06T09:56:41.810Z,10.80
2019-01-06T09:57:46.994Z,10.13
2019-01-06T09:58:54.662Z,8.05
2019-01-06T10:00:15.170Z,8.28
2019-01-06T10:01:32.326Z,7.55
2019-01-06T10:02:43.246Z,9.15
2019-01-06T10:03:51.413Z,9.10
2019-01-06T10:04:56.603Z,8.60
2019-01-06T10:06:04.902Z,8.35
2019-01-06T10:07:24.803Z,8.20
2019-01-06T10:08:35.622Z,7.40
2019-01-06T10:09:40.818Z,8.23
2019-01-06T10:11:02.286Z,9.30
2019-01-06T10:12:23.851Z,8.30
2019-01-06T10:13:34.823Z,9.08
2019-01-06T10:14:58.281Z,8.28
2019-01-06T10:16:12.538Z,8.10
2019-01-06T10:17:17.723Z,8.00
2019-01-06T10:18:41.085Z,8.50
2019-01-06T10:20:02.383Z,8.23
2019-01-06T10:21:10.494Z,9.05
2019-01-06T10:22:27.796Z,27.37
2019-01-06T10:23:35.714Z,15.75
2019-01-06T10:24:40.900Z,9.90
2019-01-06T10:25:55.421Z,9.33
2019-01-06T10:27:16.902Z,9.65
2019-01-06T10:28:34.073Z,13.48
2019-01-06T10:29:48.464Z,10.63
2019-01-06T10:30:53.650Z,10.80
2019-01-06T10:32:07.801Z,10.05
2019-01-06T10:33:29.318Z,9.85
2019-01-06T10:34:40.406Z,9.60
2019-01-06T10:35:51.571Z,9.85
2019-01-06T10:37:12.822Z,8.20
2019-01-06T10:38:20.888Z,8.60
2019-01-06T10:39:26.110Z,9.30
2019-01-06T10:40:40.085Z,8.38
2019-01-06T10:41:46.737Z,8.23
2019-01-06T10:42:57.711Z,7.95
2019-01-06T10:44:19.446Z,7.75
2019-01-06T10:45:30.641Z,7.60
2019-01-06T10:46:35.827Z,7.60
2019-01-06T10:47:57.449Z,7.00
2019-01-06T10:49:18.860Z,9.25
2019-01-06T10:50:24.086Z,8.30
2019-01-06T10:51:45.870Z,7.70
2019-01-06T10:53:07.558Z,7.70
2019-01-06T10:54:12.746Z,7.70
2019-01-06T10:55:20.697Z,7.60
2019-01-06T10:56:42.212Z,7.90
2019-01-06T10:58:03.230Z,8.68
2019-01-06T10:59:08.422Z,9.15
2019-01-06T11:00:13.594Z,9.50
2019-01-06T11:01:35.246Z,7.55
2019-01-06T11:02:56.798Z,7.20
2019-01-06T11:04:11.216Z,6.37
2019-01-06T11:05:32.682Z,6.12
2019-01-06T11:06:37.867Z,6.10
2019-01-06T11:07:43.055Z,6.22
2019-01-06T11:08:48.277Z,6.42
2019-01-06T11:09:58.984Z,7.30
2019-01-06T11:11:19.343Z,6.67
2019-01-06T11:12:36.530Z,5.37
2019-01-06T11:13:57.986Z,4.90
2019-01-06T11:15:11.862Z,7.83
2019-01-06T11:16:19.774Z,5.92
2019-01-06T11:17:30.667Z,6.53
2019-01-06T11:18:47.943Z,6.15
2019-01-06T11:20:08.049Z,5.53
2019-01-06T11:21:29.705Z,5.75
2019-01-06T11:22:40.846Z,5.20
2019-01-06T11:23:46.026Z,5.30
2019-01-06T11:25:03.172Z,5.28
2019-01-06T11:26:24.726Z,5.75
2019-01-06T11:27:35.963Z,3.98
2019-01-06T11:28:49.919Z,4.58
2019-01-06T11:30:11.486Z,3.50
2019-01-06T11:31:33.026Z,9.15
2019-01-06T11:32:40.943Z,10.60
2019-01-06T11:33:48.926Z,7.75
2019-01-06T11:34:56.794Z,4.55
2019-01-06T11:36:14.135Z,3.98
2019-01-06T11:37:25.064Z,4.17
2019-01-06T11:38:30.294Z,6.85
2019-01-06T11:39:44.105Z,6.22
2019-01-06T11:40:55.166Z,4.05
2019-01-06T11:42:12.395Z,3.92
2019-01-06T11:43:23.595Z,3.65
2019-01-06T11:44:28.807Z,3.20
2019-01-06T11:45:33.994Z,3.62
2019-01-06T11:46:39.187Z,2.75
2019-01-06T11:47:59.413Z,3.45
2019-01-06T11:49:19.416Z,3.25
2019-01-06T11:50:29.982Z,3.80
2019-01-06T11:51:50.204Z,3.60
2019-01-06T11:52:58.374Z,2.22
2019-01-06T11:54:03.528Z,3.10
2019-01-06T11:55:11.486Z,3.55
2019-01-06T11:56:25.317Z,3.30
2019-01-06T11:57:30.514Z,4.40
2019-01-06T11:58:38.570Z,3.45
2019-01-06T11:59:46.275Z,3.05
2019-01-06T12:01:06.595Z,3.98
2019-01-06T12:02:11.733Z,4.10
2019-01-06T12:03:33.011Z,4.75
2019-01-06T12:04:50.186Z,3.72
2019-01-06T12:06:11.654Z,3.08
2019-01-06T12:07:35.082Z,3.15
2019-01-06T12:08:41.203Z,3.08
2019-01-06T12:09:49.618Z,3.22
2019-01-06T12:10:57.513Z,2.90
2019-01-06T12:12:05.842Z,2.90
2019-01-06T12:13:19.881Z,3.10
2019-01-06T12:14:41.279Z,3.15
2019-01-06T12:15:46.455Z,2.98
2019-01-06T12:16:51.684Z,3.40
2019-01-06T12:18:13.439Z,3.22
2019-01-06T12:19:18.774Z,2.75
2019-01-06T12:20:32.958Z,3.17
2019-01-06T12:21:54.546Z,2.80
2019-01-06T12:23:08.490Z,2.40
2019-01-06T12:24:13.713Z,2.87
2019-01-06T12:25:18.902Z,2.92
2019-01-06T12:26:33.282Z,2.92
2019-01-06T12:27:38.422Z,2.25
2019-01-06T12:29:01.518Z,2.10
2019-01-06T12:30:22.962Z,2.30
2019-01-06T12:31:33.792Z,2.25
2019-01-06T12:32:40.801Z,1.95
2019-01-06T12:33:48.390Z,2.42
2019-01-06T12:34:59.378Z,2.08
2019-01-06T12:36:04.562Z,2.22
2019-01-06T12:37:24.825Z,1.95
2019-01-06T12:38:46.378Z,2.65
2019-01-06T12:40:07.652Z,2.20
2019-01-06T12:41:27.914Z,2.50
2019-01-06T12:42:41.725Z,2.83
2019-01-06T12:43:55.825Z,1.80
2019-01-06T12:45:06.702Z,1.95
2019-01-06T12:46:17.673Z,1.72
2019-01-06T12:47:25.749Z,1.70
2019-01-06T12:48:40.199Z,2.37
2019-01-06T12:49:54.287Z,2.02
2019-01-06T12:50:59.435Z,2.50
2019-01-06T12:52:04.618Z,2.08
2019-01-06T12:53:26.362Z,2.52
2019-01-06T12:54:37.594Z,2.55
2019-01-06T12:55:59.060Z,2.40
2019-01-06T12:57:13.474Z,2.22
2019-01-06T12:58:18.666Z,2.30
2019-01-06T12:59:32.812Z,2.77
2019-01-06T13:00:37.995Z,3.15
2019-01-06T13:01:59.574Z,3.42
2019-01-06T13:03:07.794Z,3.33
2019-01-06T13:04:12.971Z,3.62
2019-01-06T13:05:18.109Z,4.05
2019-01-06T13:06:23.258Z,5.25
2019-01-06T13:07:34.214Z,5.20
2019-01-06T13:08:39.406Z,4.60
2019-01-06T13:09:47.234Z,5.65
2019-01-06T13:11:10.835Z,5.05
2019-01-06T13:12:21.818Z,5.80
2019-01-06T13:13:45.186Z,5.12
2019-01-06T13:15:08.702Z,5.15
2019-01-06T13:16:19.684Z,5.45
2019-01-06T13:17:24.930Z,5.97
2019-01-06T13:18:36.134Z,5.70
2019-01-06T13:19:57.654Z,6.25
2019-01-06T13:21:02.758Z,5.92
2019-01-06T13:22:26.007Z,6.20
2019-01-06T13:23:31.226Z,5.10
2019-01-06T13:24:36.416Z,6.28
2019-01-06T13:25:44.556Z,7.70
2019-01-06T13:26:49.861Z,7.28
2019-01-06T13:28:11.665Z,8.28
2019-01-06T13:29:34.862Z,7.65
2019-01-06T13:30:40.049Z,6.87
2019-01-06T13:31:45.229Z,6.80
2019-01-06T13:33:06.707Z,6.65
2019-01-06T13:34:28.358Z,7.10
2019-01-06T13:35:49.682Z,8.00
2019-01-06T13:37:11.572Z,7.55
2019-01-06T13:38:25.869Z,8.48
2019-01-06T13:39:31.054Z,8.35
2019-01-06T13:40:36.257Z,10.18
2019-01-06T13:41:57.660Z,9.38
2019-01-06T13:43:19.798Z,8.65
2019-01-06T13:44:31.090Z,8.38
2019-01-06T13:45:38.805Z,8.10
2019-01-06T13:46:43.911Z,7.37
2019-01-06T13:47:57.117Z,8.23
2019-01-06T13:49:14.130Z,8.35
2019-01-06T13:50:35.294Z,8.23
2019-01-06T13:51:43.338Z,7.90
2019-01-06T13:52:51.362Z,9.33
2019-01-06T13:54:12.514Z,7.92
2019-01-06T13:55:33.881Z,8.40
2019-01-06T13:56:44.878Z,8.63
2019-01-06T13:58:05.054Z,7.87
2019-01-06T13:59:10.243Z,8.30
2019-01-06T14:00:24.062Z,9.80
2019-01-06T14:01:34.811Z,8.28
2019-01-06T14:02:42.425Z,9.20
2019-01-06T14:04:04.330Z,8.88
2019-01-06T14:05:15.542Z,8.45
2019-01-06T14:06:32.751Z,9.10
2019-01-06T14:07:54.123Z,8.68
2019-01-06T14:09:07.938Z,8.50
2019-01-06T14:10:13.135Z,8.63
2019-01-06T14:11:34.478Z,9.03
2019-01-06T14:12:42.232Z,8.73
2019-01-06T14:13:49.908Z,8.78
2019-01-06T14:15:11.302Z,9.10
2019-01-06T14:16:16.627Z,8.25
2019-01-06T14:17:39.822Z,7.87
2019-01-06T14:18:59.984Z,7.22
2019-01-06T14:20:08.249Z,6.92
2019-01-06T14:21:30.134Z,27.15
2019-01-06T14:22:46.882Z,24.32
2019-01-06T14:23:54.610Z,19.02
2019-01-06T14:25:08.734Z,12.25
2019-01-06T14:26:30.361Z,12.65
2019-01-06T14:27:44.242Z,10.90
2019-01-06T14:29:05.834Z,8.73
2019-01-06T14:30:20.930Z,8.83
2019-01-06T14:31:26.264Z,9.08
2019-01-06T14:32:46.185Z,9.70
2019-01-06T14:33:51.378Z,10.72
2019-01-06T14:34:56.603Z,11.60
2019-01-06T14:36:01.795Z,9.40
2019-01-06T14:37:23.589Z,8.38
2019-01-06T14:38:46.899Z,9.35
2019-01-06T14:40:08.203Z,21.10
2019-01-06T14:41:25.462Z,13.18
2019-01-06T14:42:39.560Z,11.12
2019-01-06T14:43:53.418Z,11.05
2019-01-06T14:45:10.349Z,11.03
2019-01-06T14:46:31.663Z,10.78
2019-01-06T14:47:53.330Z,11.60
2019-01-06T14:49:04.522Z,10.20
2019-01-06T14:50:28.097Z,9.65
2019-01-06T14:51:42.286Z,7.87
2019-01-06T14:52:47.468Z,9.23
2019-01-06T14:54:04.597Z,8.33
2019-01-06T14:55:09.789Z,7.22
2019-01-06T14:56:14.968Z,7.80
2019-01-06T14:57:36.369Z,7.65
2019-01-06T14:58:44.358Z,6.87
2019-01-06T14:59:52.273Z,6.78
2019-01-06T15:01:09.295Z,7.58
2019-01-06T15:02:23.639Z,5.85
2019-01-06T15:03:31.362Z,7.53
2019-01-06T15:04:51.334Z,6.60
2019-01-06T15:06:05.499Z,7.10
2019-01-06T15:07:19.890Z,6.22
2019-01-06T15:08:25.026Z,6.17
2019-01-06T15:09:36.187Z,6.95
2019-01-06T15:10:50.454Z,6.30
2019-01-06T15:11:58.350Z,6.37
2019-01-06T15:13:03.569Z,6.97
2019-01-06T15:14:08.752Z,7.53
2019-01-06T15:15:16.635Z,6.75
2019-01-06T15:16:27.885Z,7.20
2019-01-06T15:17:33.098Z,6.62
2019-01-06T15:18:38.282Z,6.90
2019-01-06T15:19:55.719Z,6.85
2019-01-06T15:21:00.940Z,6.97
2019-01-06T15:22:06.171Z,7.35
2019-01-06T15:23:26.391Z,7.87
2019-01-06T15:24:34.168Z,6.92
2019-01-06T15:25:39.347Z,7.10
2019-01-06T15:26:56.804Z,8.05
2019-01-06T15:28:02.013Z,7.35
2019-01-06T15:29:07.129Z,8.05
2019-01-06T15:30:15.406Z,6.08
2019-01-06T15:31:26.327Z,6.12
2019-01-06T15:32:31.547Z,4.60
2019-01-06T15:33:39.657Z,4.85
2019-01-06T15:35:00.786Z,4.75
2019-01-06T15:36:22.159Z,4.90
2019-01-06T15:37:30.338Z,5.10
2019-01-06T15:38:44.609Z,4.87
2019-01-06T15:40:02.014Z,5.17
2019-01-06T15:41:13.227Z,4.85
2019-01-06T15:42:18.492Z,4.83
2019-01-06T15:43:29.581Z,4.53
2019-01-06T15:44:46.322Z,4.65
2019-01-06T15:46:00.298Z,3.77
2019-01-06T15:47:21.715Z,4.50
2019-01-06T15:48:26.898Z,3.35
2019-01-06T15:49:41.216Z,2.90
2019-01-06T15:50:46.397Z,3.05
2019-01-06T15:52:07.794Z,2.87
2019-01-06T15:53:18.502Z,2.58
2019-01-06T15:54:41.739Z,2.20
2019-01-06T15:56:02.890Z,2.30
2019-01-06T15:57:10.767Z,2.40
2019-01-06T15:58:33.950Z,2.40
2019-01-06T15:59:45.085Z,2.12
2019-01-06T16:00:52.999Z,2.00
2019-01-06T16:02:04.461Z,1.85
2019-01-06T16:03:09.567Z,1.90
2019-01-06T16:04:30.929Z,2.00
2019-01-06T16:05:52.861Z,1.80
2019-01-06T16:06:57.966Z,1.65
2019-01-06T16:08:21.303Z,3.60
2019-01-06T16:09:42.939Z,4.17